Time;durP1;ratioP1;P1;durP2;ratioP2;P2;SDS_P1;SDS_P2;PMS_P1;PMS_P2;Temp;Humidity;BMP_temperature;BMP_pressure;BME280_temperature;BME280_humidity;BME280_pressure;Samples;Min_cycle;Max_cycle;Signal;HPM_P1;HPM_P2
2020/12/18 00:01:11;;;;;;;1.70;1.40;;;7.10;98.20;;;;;;5009892;28;20556;-76
2020/12/18 00:03:38;;;;;;;1.63;1.27;;;7.10;98.20;;;;;;5013724;28;20487;-77
2020/12/18 00:06:04;;;;;;;1.60;1.20;;;7.10;98.20;;;;;;5010559;28;20746;-75
2020/12/18 00:08:31;;;;;;;1.70;1.30;;;7.10;98.20;;;;;;5009851;28;20544;-76
2020/12/18 00:10:57;;;;;;;1.70;1.40;;;7.10;98.20;;;;;;5008553;28;20547;-78
2020/12/18 00:13:23;;;;;;;1.60;1.30;;;7.10;98.20;;;;;;5001939;28;21052;-77
2020/12/18 00:15:52;;;;;;;1.60;1.30;;;7.00;98.20;;;;;;5007818;28;20567;-76
2020/12/18 00:18:20;;;;;;;1.60;1.30;;;7.00;98.20;;;;;;5009560;28;20542;-77
2020/12/18 00:20:50;;;;;;;1.63;1.30;;;7.10;98.20;;;;;;5006116;28;20527;-76
2020/12/18 00:23:16;;;;;;;1.60;1.30;;;7.10;98.20;;;;;;5000250;28;20467;-78
2020/12/18 00:25:47;;;;;;;1.67;1.33;;;7.10;98.20;;;;;;5008588;28;20891;-77
2020/12/18 00:28:13;;;;;;;1.60;1.20;;;7.10;98.20;;;;;;5009606;28;20815;-75
2020/12/18 00:30:40;;;;;;;1.70;1.30;;;7.10;98.20;;;;;;5005170;28;20464;-76
2020/12/18 00:33:07;;;;;;;1.70;1.40;;;7.20;98.20;;;;;;5014991;28;20947;-76
2020/12/18 00:35:35;;;;;;;1.60;1.30;;;7.20;98.20;;;;;;5012349;28;20516;-74
2020/12/18 00:38:02;;;;;;;1.70;1.40;;;7.20;98.20;;;;;;5009687;28;20928;-76
2020/12/18 00:40:29;;;;;;;1.70;1.30;;;7.20;98.20;;;;;;4998701;28;20974;-75
2020/12/18 00:42:55;;;;;;;1.60;1.20;;;7.20;98.20;;;;;;5009250;28;20461;-75
2020/12/18 00:45:21;;;;;;;1.87;1.57;;;7.10;98.20;;;;;;5005805;28;20481;-76
2020/12/18 00:47:48;;;;;;;1.70;1.40;;;7.10;98.20;;;;;;5000100;28;20607;-76
2020/12/18 00:50:14;;;;;;;1.70;1.40;;;7.10;98.20;;;;;;5004780;28;20580;-74
2020/12/18 00:52:41;;;;;;;1.60;1.27;;;7.10;98.20;;;;;;5011892;28;21002;-76
2020/12/18 00:55:08;;;;;;;1.60;1.20;;;7.10;98.20;;;;;;5006991;28;20563;-75
2020/12/18 00:57:34;;;;;;;1.60;1.30;;;7.00;98.20;;;;;;5005454;28;20495;-75
2020/12/18 01:00:01;;;;;;;1.63;1.30;;;7.00;98.20;;;;;;5008849;28;20531;-76
2020/12/18 01:02:27;;;;;;;1.60;1.30;;;6.90;98.20;;;;;;5009665;28;20523;-76
2020/12/18 01:04:54;;;;;;;1.60;1.30;;;6.90;98.20;;;;;;5013701;28;21018;-77
2020/12/18 01:07:20;;;;;;;1.70;1.40;;;6.80;98.20;;;;;;5005735;28;21129;-75
2020/12/18 01:09:47;;;;;;;1.70;1.40;;;6.80;98.20;;;;;;5009404;28;20495;-73
2020/12/18 01:12:14;;;;;;;1.63;1.30;;;6.80;98.20;;;;;;5003816;28;20476;-77
2020/12/18 01:14:40;;;;;;;1.60;1.27;;;6.70;98.20;;;;;;5007374;28;20948;-76
2020/12/18 01:17:08;;;;;;;1.60;1.30;;;6.70;98.20;;;;;;5005428;28;20499;-75
2020/12/18 01:19:35;;;;;;;1.67;1.30;;;6.70;98.20;;;;;;5008692;28;20986;-77
2020/12/18 01:22:01;;;;;;;1.67;1.30;;;6.60;98.20;;;;;;5002335;28;20764;-75
2020/12/18 01:24:27;;;;;;;1.60;1.30;;;6.50;98.20;;;;;;5008694;28;20552;-76
2020/12/18 01:26:55;;;;;;;1.63;1.40;;;6.50;98.20;;;;;;5008417;28;20468;-76
2020/12/18 01:29:21;;;;;;;1.60;1.30;;;6.40;98.20;;;;;;5008936;28;20539;-74
2020/12/18 01:31:48;;;;;;;1.60;1.30;;;6.40;98.20;;;;;;5004142;28;20885;-75
2020/12/18 01:34:14;;;;;;;1.60;1.30;;;6.40;98.20;;;;;;5008838;28;20889;-77
2020/12/18 01:36:41;;;;;;;1.67;1.40;;;6.40;98.20;;;;;;5008438;28;21064;-75
2020/12/18 01:39:07;;;;;;;1.63;1.30;;;6.40;98.20;;;;;;5003001;28;20533;-74
2020/12/18 01:41:34;;;;;;;1.60;1.30;;;6.40;98.20;;;;;;5002382;28;20564;-76
2020/12/18 01:44:01;;;;;;;1.60;1.40;;;6.30;98.20;;;;;;5005298;28;20522;-78
2020/12/18 01:46:30;;;;;;;1.70;1.50;;;6.30;98.20;;;;;;5004321;28;20528;-75
2020/12/18 01:48:57;;;;;;;1.70;1.40;;;6.30;98.20;;;;;;5005662;28;20621;-77
2020/12/18 01:51:24;;;;;;;1.63;1.43;;;6.30;98.20;;;;;;5006780;28;20503;-75
2020/12/18 01:53:51;;;;;;;1.60;1.30;;;6.30;98.20;;;;;;5011782;28;20500;-75
2020/12/18 01:56:21;;;;;;;1.70;1.43;;;6.30;98.20;;;;;;5007865;28;20929;-74
2020/12/18 01:58:49;;;;;;;1.63;1.30;;;6.30;98.20;;;;;;5010707;28;20824;-77
2020/12/18 02:01:16;;;;;;;1.60;1.30;;;6.30;98.20;;;;;;5011847;28;20472;-74
2020/12/18 02:03:42;;;;;;;1.63;1.30;;;6.30;98.20;;;;;;5009287;28;20551;-75
2020/12/18 02:06:14;;;;;;;1.63;1.30;;;6.20;98.20;;;;;;5014389;28;20567;-76
2020/12/18 02:08:42;;;;;;;1.70;1.40;;;6.20;98.20;;;;;;5011107;28;21131;-75
2020/12/18 02:11:12;;;;;;;1.60;1.30;;;6.20;98.20;;;;;;5012021;28;20983;-74
2020/12/18 02:13:38;;;;;;;1.63;1.30;;;6.20;98.20;;;;;;5002662;28;20739;-76
2020/12/18 02:16:05;;;;;;;1.67;1.37;;;6.10;98.20;;;;;;5006217;28;20488;-76
2020/12/18 02:18:32;;;;;;;1.67;1.37;;;6.10;98.20;;;;;;5011941;28;21072;-77
2020/12/18 02:21:02;;;;;;;1.70;1.53;;;6.10;98.20;;;;;;5007142;28;20576;-76
2020/12/18 02:23:28;;;;;;;1.70;1.40;;;6.10;98.20;;;;;;5007785;28;20795;-75
2020/12/18 02:26:05;;;;;;;1.60;1.40;;;6.00;98.20;;;;;;5011350;28;20516;-76
2020/12/18 02:28:31;;;;;;;1.70;1.40;;;6.00;98.20;;;;;;5010039;28;20948;-76
2020/12/18 02:30:58;;;;;;;1.60;1.30;;;6.00;98.20;;;;;;5007525;28;20515;-77
2020/12/18 02:33:24;;;;;;;1.63;1.40;;;5.90;98.20;;;;;;5013058;28;20527;-76
2020/12/18 02:35:51;;;;;;;1.60;1.40;;;5.90;98.20;;;;;;5012045;28;20487;-75
2020/12/18 02:38:17;;;;;;;1.60;1.30;;;5.80;98.20;;;;;;5002548;28;20846;-76
2020/12/18 02:40:44;;;;;;;1.60;1.30;;;5.80;98.20;;;;;;5006491;28;20504;-77
2020/12/18 02:43:11;;;;;;;1.70;1.50;;;5.80;98.20;;;;;;5011125;28;20492;-75
2020/12/18 02:45:37;;;;;;;1.70;1.40;;;5.80;98.20;;;;;;5004021;28;20512;-76
2020/12/18 02:48:04;;;;;;;1.60;1.30;;;5.70;98.20;;;;;;5002975;28;20500;-77
2020/12/18 02:50:30;;;;;;;1.60;1.30;;;5.70;98.20;;;;;;5011843;28;20964;-76
2020/12/18 02:52:57;;;;;;;1.60;1.30;;;5.80;98.20;;;;;;5005261;28;20500;-77
2020/12/18 02:55:23;;;;;;;1.60;1.30;;;5.70;98.20;;;;;;5009130;28;20563;-76
2020/12/18 02:57:50;;;;;;;1.60;1.30;;;5.70;98.20;;;;;;5010881;28;20468;-73
2020/12/18 03:00:18;;;;;;;1.60;1.30;;;5.70;98.20;;;;;;5014472;28;20640;-75
2020/12/18 03:02:45;;;;;;;1.70;1.50;;;5.70;98.20;;;;;;5011232;28;20796;-74
2020/12/18 03:05:12;;;;;;;1.70;1.40;;;5.70;98.20;;;;;;5012646;28;20516;-75
2020/12/18 03:07:38;;;;;;;1.60;1.30;;;5.70;98.20;;;;;;5009038;28;20822;-74
2020/12/18 03:10:04;;;;;;;1.60;1.30;;;5.70;98.20;;;;;;5010424;28;20803;-74
2020/12/18 03:12:31;;;;;;;1.63;1.30;;;5.70;98.20;;;;;;5006306;28;20548;-74
2020/12/18 03:14:57;;;;;;;1.70;1.47;;;5.70;98.20;;;;;;5009421;28;20602;-75
2020/12/18 03:17:25;;;;;;;1.67;1.40;;;5.70;98.20;;;;;;5007739;28;20559;-75
2020/12/18 03:19:51;;;;;;;1.60;1.30;;;5.70;98.20;;;;;;5008440;28;20524;-74
2020/12/18 03:22:17;;;;;;;1.60;1.30;;;5.70;98.20;;;;;;5006621;28;20616;-75
2020/12/18 03:24:44;;;;;;;1.70;1.43;;;5.70;98.20;;;;;;5013834;28;20525;-76
2020/12/18 03:27:10;;;;;;;1.70;1.33;;;5.70;98.20;;;;;;5010462;28;21041;-77
2020/12/18 03:29:36;;;;;;;1.60;1.40;;;5.70;98.20;;;;;;5010853;28;20452;-78
2020/12/18 03:32:03;;;;;;;1.67;1.40;;;5.70;98.20;;;;;;5011283;28;20551;-76
2020/12/18 03:34:30;;;;;;;1.67;1.30;;;5.70;98.20;;;;;;5009334;28;20471;-75
2020/12/18 03:36:57;;;;;;;1.67;1.40;;;5.70;98.20;;;;;;5007884;28;20468;-76
2020/12/18 03:39:23;;;;;;;1.67;1.40;;;5.70;98.20;;;;;;5009199;28;20977;-77
2020/12/18 03:41:49;;;;;;;1.63;1.30;;;5.70;98.20;;;;;;5009547;28;20548;-75
2020/12/18 03:44:16;;;;;;;1.60;1.40;;;5.80;98.20;;;;;;5008014;28;21131;-76
2020/12/18 03:46:42;;;;;;;1.70;1.43;;;5.80;98.20;;;;;;5005248;28;20572;-77
2020/12/18 03:49:08;;;;;;;1.70;1.40;;;5.80;98.20;;;;;;5008911;28;20495;-77
2020/12/18 03:51:36;;;;;;;1.67;1.30;;;5.80;98.20;;;;;;5010097;28;20507;-75
2020/12/18 03:54:02;;;;;;;1.70;1.50;;;5.80;98.20;;;;;;5011907;28;20496;-76
2020/12/18 03:56:29;;;;;;;1.70;1.60;;;5.80;98.20;;;;;;5013745;28;20508;-77
2020/12/18 03:58:55;;;;;;;1.60;1.30;;;5.80;98.20;;;;;;5011117;28;20567;-77
2020/12/18 04:01:23;;;;;;;1.63;1.30;;;5.80;98.20;;;;;;5014567;28;20857;-75
2020/12/18 04:03:50;;;;;;;1.60;1.30;;;5.80;98.20;;;;;;5008634;28;20547;-77
2020/12/18 04:06:16;;;;;;;1.67;1.40;;;5.90;98.20;;;;;;5005884;28;20519;-76
2020/12/18 04:08:43;;;;;;;1.70;1.47;;;5.90;98.20;;;;;;5010436;28;20464;-77
2020/12/18 04:11:10;;;;;;;1.60;1.30;;;5.90;98.20;;;;;;5008208;28;20567;-77
2020/12/18 04:13:36;;;;;;;1.70;1.60;;;5.90;98.20;;;;;;5007404;28;20500;-74
2020/12/18 04:16:03;;;;;;;1.63;1.40;;;5.90;98.20;;;;;;5008453;28;20504;-75
2020/12/18 04:18:30;;;;;;;1.63;1.30;;;5.90;98.20;;;;;;5011359;28;20564;-77
2020/12/18 04:20:58;;;;;;;1.60;1.30;;;5.90;98.20;;;;;;5007712;28;20511;-76
2020/12/18 04:23:24;;;;;;;1.67;1.40;;;5.90;98.20;;;;;;5003222;28;20466;-75
2020/12/18 04:25:52;;;;;;;1.63;1.40;;;5.90;98.20;;;;;;5008741;28;20538;-77
2020/12/18 04:28:18;;;;;;;1.70;1.40;;;5.90;98.20;;;;;;5007586;28;20921;-76
2020/12/18 04:30:45;;;;;;;1.70;1.50;;;5.90;98.20;;;;;;5009626;28;20547;-77
2020/12/18 04:33:11;;;;;;;1.70;1.43;;;5.90;98.20;;;;;;5013531;28;20492;-77
2020/12/18 04:35:37;;;;;;;1.70;1.40;;;5.90;98.20;;;;;;5012448;28;20872;-74
2020/12/18 04:38:04;;;;;;;1.63;1.30;;;5.90;98.20;;;;;;5007639;28;20465;-75
2020/12/18 04:40:33;;;;;;;1.70;1.60;;;5.90;98.20;;;;;;5005965;28;20967;-77
2020/12/18 04:43:00;;;;;;;1.70;1.60;;;6.00;98.20;;;;;;5009720;28;20464;-77
2020/12/18 04:45:27;;;;;;;1.70;1.30;;;6.00;98.20;;;;;;5008172;28;20523;-75
2020/12/18 04:47:58;;;;;;;1.70;1.40;;;5.90;98.20;;;;;;5008502;28;20702;-78
2020/12/18 04:50:25;;;;;;;1.60;1.30;;;5.90;98.20;;;;;;5006751;28;20511;-76
2020/12/18 04:52:57;;;;;;;1.70;1.50;;;5.90;98.20;;;;;;5007261;28;20944;-76
2020/12/18 04:55:28;;;;;;;1.60;1.30;;;5.90;98.20;;;;;;5010796;28;20524;-75
2020/12/18 04:57:55;;;;;;;1.63;1.33;;;6.00;98.20;;;;;;5004602;28;20503;-77
2020/12/18 05:00:22;;;;;;;1.70;1.40;;;6.00;98.20;;;;;;5003876;28;20575;-76
2020/12/18 05:02:49;;;;;;;1.70;1.30;;;6.00;98.20;;;;;;5006492;28;20706;-76
2020/12/18 05:05:15;;;;;;;3.40;2.30;;;6.00;98.20;;;;;;5006234;28;20571;-76
2020/12/18 05:07:42;;;;;;;1.67;1.23;;;6.00;98.20;;;;;;5008619;28;20496;-76
2020/12/18 05:10:09;;;;;;;1.70;1.40;;;6.00;98.20;;;;;;5004545;28;20970;-75
2020/12/18 05:12:36;;;;;;;1.67;1.37;;;6.00;98.20;;;;;;4999126;28;20465;-75
2020/12/18 05:15:04;;;;;;;1.70;1.47;;;6.00;98.20;;;;;;5006582;28;20515;-77
2020/12/18 05:17:31;;;;;;;1.67;1.30;;;6.00;98.20;;;;;;5008960;28;20496;-76
2020/12/18 05:19:58;;;;;;;1.63;1.30;;;6.00;98.20;;;;;;5005463;28;20482;-76
2020/12/18 05:22:25;;;;;;;1.60;1.30;;;6.00;98.20;;;;;;5002814;28;20881;-77
2020/12/18 05:24:53;;;;;;;1.60;1.30;;;6.00;98.20;;;;;;5003860;28;20484;-76
2020/12/18 05:27:21;;;;;;;1.63;1.30;;;6.00;98.20;;;;;;5013102;28;20465;-76
2020/12/18 05:29:48;;;;;;;1.67;1.30;;;6.00;98.20;;;;;;5009594;28;20472;-76
2020/12/18 05:32:15;;;;;;;1.70;1.43;;;6.00;98.20;;;;;;5019418;28;20491;-77
2020/12/18 05:34:44;;;;;;;1.60;1.30;;;6.00;98.20;;;;;;5022475;28;20468;-77
2020/12/18 05:37:12;;;;;;;1.60;1.30;;;6.00;98.20;;;;;;5011368;28;20457;-76
2020/12/18 05:39:40;;;;;;;1.70;1.40;;;6.10;98.20;;;;;;5005966;28;20565;-77
2020/12/18 05:42:07;;;;;;;1.70;1.40;;;6.20;98.20;;;;;;5007171;28;20481;-74
2020/12/18 05:44:34;;;;;;;1.70;1.50;;;6.20;98.20;;;;;;5013505;28;20467;-76
2020/12/18 05:47:05;;;;;;;1.70;1.40;;;6.30;98.20;;;;;;5005984;28;20654;-74
2020/12/18 05:49:33;;;;;;;1.70;1.40;;;6.40;98.20;;;;;;5011931;28;20468;-75
2020/12/18 05:52:01;;;;;;;1.70;1.30;;;6.40;98.20;;;;;;5011806;28;21006;-75
2020/12/18 05:54:33;;;;;;;1.60;1.30;;;6.50;98.20;;;;;;5012180;28;20468;-77
2020/12/18 05:57:10;;;;;;;1.70;1.40;;;6.50;98.20;;;;;;5016363;28;20513;-77
2020/12/18 05:59:41;;;;;;;1.63;1.40;;;6.60;98.20;;;;;;5016550;28;20672;-77
2020/12/18 06:02:11;;;;;;;1.63;1.30;;;6.60;98.20;;;;;;5005452;28;20936;-75
2020/12/18 06:04:38;;;;;;;1.70;1.50;;;6.60;98.20;;;;;;5020171;28;20463;-76
2020/12/18 06:07:06;;;;;;;1.60;1.30;;;6.60;98.20;;;;;;5011410;28;20827;-75
2020/12/18 06:09:34;;;;;;;1.60;1.40;;;6.70;98.20;;;;;;5013058;28;20461;-75
2020/12/18 06:12:05;;;;;;;1.63;1.30;;;6.70;98.20;;;;;;5010186;28;20801;-77
2020/12/18 06:14:33;;;;;;;1.60;1.20;;;6.70;98.20;;;;;;5009703;28;20496;-75
2020/12/18 06:17:08;;;;;;;1.70;1.40;;;6.80;98.20;;;;;;5010636;28;20550;-75
2020/12/18 06:19:38;;;;;;;1.70;1.50;;;6.80;98.20;;;;;;5013662;28;20892;-75
2020/12/18 06:22:07;;;;;;;1.70;1.30;;;6.80;98.20;;;;;;5006981;28;20465;-75
2020/12/18 06:24:41;;;;;;;1.67;1.30;;;6.80;98.20;;;;;;5014389;28;20471;-76
2020/12/18 06:27:09;;;;;;;1.70;1.40;;;6.80;98.20;;;;;;5015178;28;20464;-75
2020/12/18 06:29:35;;;;;;;1.63;1.37;;;6.80;98.20;;;;;;5003933;28;20547;-75
2020/12/18 06:32:23;;;;;;;1.70;1.30;;;6.80;98.20;;;;;;5009237;28;20507;-75
2020/12/18 06:34:50;;;;;;;1.70;1.30;;;6.90;98.20;;;;;;5014139;28;20488;-76
2020/12/18 06:37:28;;;;;;;1.63;1.33;;;6.90;98.20;;;;;;5009944;28;20547;-75
2020/12/18 06:39:54;;;;;;;1.60;1.20;;;6.90;98.20;;;;;;5009315;28;20480;-77
2020/12/18 06:42:22;;;;;;;1.63;1.30;;;6.80;98.20;;;;;;5009213;28;20468;-76
2020/12/18 06:44:50;;;;;;;1.70;1.60;;;6.90;98.20;;;;;;5011422;28;20488;-75
2020/12/18 06:47:19;;;;;;;1.63;1.30;;;6.90;98.20;;;;;;5004208;28;20497;-75
2020/12/18 06:50:06;;;;;;;1.70;1.40;;;6.90;98.20;;;;;;5011332;28;20552;-74
2020/12/18 06:53:06;;;;;;;1.60;1.30;;;6.90;98.20;;;;;;5011362;28;20888;-76
2020/12/18 06:55:40;;;;;;;1.63;1.27;;;6.90;98.20;;;;;;5009280;28;20489;-75
2020/12/18 06:58:18;;;;;;;1.60;1.30;;;6.90;98.20;;;;;;5005176;28;20878;-76
2020/12/18 07:00:46;;;;;;;1.70;1.30;;;6.90;98.20;;;;;;5010487;28;20492;-75
2020/12/18 07:03:38;;;;;;;1.67;1.30;;;6.90;98.20;;;;;;5010489;28;20500;-80
2020/12/18 07:06:07;;;;;;;1.70;1.30;;;6.90;98.20;;;;;;5017965;28;20476;-78
2020/12/18 07:08:36;;;;;;;1.70;1.33;;;6.90;98.20;;;;;;5012720;28;20493;-78
2020/12/18 07:11:05;;;;;;;1.90;1.70;;;6.90;98.20;;;;;;5012994;28;20467;-76
2020/12/18 07:13:32;;;;;;;1.60;1.30;;;6.90;98.20;;;;;;5012243;28;20832;-76
2020/12/18 07:16:03;;;;;;;1.70;1.40;;;7.00;98.20;;;;;;5012650;28;20820;-77
2020/12/18 07:18:31;;;;;;;1.63;1.30;;;7.00;98.20;;;;;;5013145;28;20540;-76
2020/12/18 07:20:59;;;;;;;1.60;1.30;;;7.00;98.20;;;;;;5013618;28;20575;-76
2020/12/18 07:23:27;;;;;;;1.63;1.30;;;7.00;98.20;;;;;;5018022;28;20464;-78
2020/12/18 07:25:55;;;;;;;1.63;1.40;;;7.00;98.20;;;;;;5014009;28;20488;-76
2020/12/18 07:28:27;;;;;;;1.70;1.40;;;7.00;98.20;;;;;;5014822;28;20850;-78
2020/12/18 07:30:55;;;;;;;1.80;1.70;;;7.00;98.20;;;;;;5009808;28;20460;-77
2020/12/18 07:33:23;;;;;;;1.70;1.40;;;7.00;98.20;;;;;;5009387;28;20531;-76
2020/12/18 07:35:51;;;;;;;1.60;1.27;;;7.00;98.20;;;;;;5013270;28;20481;-79
2020/12/18 07:38:20;;;;;;;1.60;1.20;;;7.00;98.20;;;;;;5015979;28;20917;-79
2020/12/18 07:40:48;;;;;;;1.67;1.30;;;7.00;98.20;;;;;;5012934;28;20578;-80
2020/12/18 07:43:19;;;;;;;1.60;1.30;;;7.00;98.20;;;;;;5015649;28;20687;-77
2020/12/18 07:45:47;;;;;;;1.63;1.30;;;7.10;98.20;;;;;;5014037;28;20945;-78
2020/12/18 07:48:16;;;;;;;1.60;1.30;;;7.10;98.20;;;;;;5010529;28;20577;-78
2020/12/18 07:51:00;;;;;;;1.70;1.40;;;7.10;98.20;;;;;;5010603;28;21001;-79
2020/12/18 07:53:27;;;;;;;1.60;1.27;;;7.10;98.20;;;;;;5018441;28;20496;-77
2020/12/18 07:56:10;;;;;;;1.60;1.30;;;7.10;98.20;;;;;;5009246;28;20528;-77
2020/12/18 07:58:46;;;;;;;1.60;1.30;;;7.10;98.20;;;;;;5010252;28;20552;-78
2020/12/18 08:01:15;;;;;;;1.70;1.30;;;7.10;98.20;;;;;;5012308;28;20849;-77
2020/12/18 08:03:45;;;;;;;1.70;1.53;;;7.20;98.20;;;;;;5014461;28;20477;-77
2020/12/18 08:06:22;;;;;;;1.70;1.40;;;7.20;98.20;;;;;;5008290;28;20586;-77
2020/12/18 08:11:37;;;;;;;1.60;1.30;;;7.20;98.20;;;;;;4980399;28;20713;-77
2020/12/18 08:14:06;;;;;;;2.53;2.33;;;7.30;98.20;;;;;;5010944;28;20496;-79
2020/12/18 08:16:33;;;;;;;1.63;1.30;;;7.30;98.20;;;;;;5016859;28;20928;-78
2020/12/18 08:19:02;;;;;;;1.60;1.20;;;7.30;98.20;;;;;;5010511;28;20460;-77
2020/12/18 08:21:29;;;;;;;1.70;1.40;;;7.30;98.20;;;;;;5010320;28;20464;-78
2020/12/18 08:24:01;;;;;;;1.70;1.40;;;7.40;98.20;;;;;;5017020;28;20469;-78
2020/12/18 08:26:32;;;;;;;1.70;1.40;;;7.40;98.20;;;;;;5012173;28;20898;-77
2020/12/18 08:28:59;;;;;;;1.60;1.30;;;7.40;98.20;;;;;;5011413;28;20663;-77
2020/12/18 08:31:28;;;;;;;1.63;1.30;;;7.50;98.20;;;;;;5013615;28;20928;-77
2020/12/18 08:33:56;;;;;;;1.70;1.40;;;7.50;98.20;;;;;;5012482;28;20464;-78
2020/12/18 08:36:25;;;;;;;1.70;1.50;;;7.50;98.20;;;;;;5008297;28;20484;-77
2020/12/18 08:39:03;;;;;;;1.70;1.47;;;7.60;98.20;;;;;;5006099;28;20469;-77
2020/12/18 08:41:44;;;;;;;1.60;1.20;;;7.60;98.20;;;;;;5006716;28;20480;-77
2020/12/18 08:44:13;;;;;;;1.70;1.30;;;7.70;98.20;;;;;;5012522;28;20484;-78
2020/12/18 08:46:40;;;;;;;1.70;1.40;;;7.70;98.20;;;;;;5007494;28;20563;-77
2020/12/18 08:49:15;;;;;;;1.67;1.30;;;7.80;98.20;;;;;;5015376;28;20460;-79
2020/12/18 08:51:42;;;;;;;1.70;1.30;;;7.80;98.20;;;;;;5017575;28;20471;-77
2020/12/18 08:54:25;;;;;;;1.70;1.30;;;7.90;98.20;;;;;;5014294;28;20535;-77
2020/12/18 08:57:29;;;;;;;1.67;1.30;;;8.00;98.20;;;;;;5013853;28;20461;-77
2020/12/18 09:00:10;;;;;;;1.63;1.20;;;8.00;98.20;;;;;;5011087;28;20909;-75
2020/12/18 09:02:40;;;;;;;2.13;1.93;;;8.10;98.20;;;;;;5011116;28;20464;-76
2020/12/18 09:05:18;;;;;;;1.60;1.30;;;8.20;98.20;;;;;;5007824;28;20512;-77
2020/12/18 09:07:52;;;;;;;1.70;1.30;;;8.20;98.20;;;;;;5011158;28;20866;-77
2020/12/18 09:10:40;;;;;;;1.70;1.40;;;8.30;98.20;;;;;;5011207;28;20475;-77
2020/12/18 09:13:15;;;;;;;1.60;1.20;;;8.30;98.20;;;;;;5012627;28;20503;-78
2020/12/18 09:15:42;;;;;;;1.70;1.33;;;8.30;98.20;;;;;;5008723;28;20531;-76
2020/12/18 09:18:11;;;;;;;1.60;1.20;;;8.30;98.20;;;;;;5011209;28;20927;-77
2020/12/18 09:20:39;;;;;;;5.27;4.93;;;8.30;98.20;;;;;;5009852;28;20520;-76
2020/12/18 09:23:08;;;;;;;1.67;1.30;;;8.30;98.20;;;;;;5005555;28;20527;-76
2020/12/18 09:25:36;;;;;;;1.67;1.20;;;8.30;98.20;;;;;;5002416;28;21030;-76
2020/12/18 09:28:04;;;;;;;1.60;1.30;;;8.30;98.20;;;;;;4999820;28;20724;-76
2020/12/18 09:30:32;;;;;;;1.70;1.30;;;8.30;98.20;;;;;;5015438;28;20464;-77
2020/12/18 09:33:14;;;;;;;1.63;1.20;;;8.30;98.20;;;;;;5004670;28;20503;-77
2020/12/18 09:35:41;;;;;;;1.70;1.37;;;8.40;98.20;;;;;;5007225;28;20495;-76
2020/12/18 09:38:08;;;;;;;1.70;1.37;;;8.40;98.20;;;;;;5006953;28;20551;-76
2020/12/18 09:40:35;;;;;;;1.60;1.30;;;8.40;98.20;;;;;;5004479;28;20545;-75
2020/12/18 09:43:02;;;;;;;1.60;1.20;;;8.40;98.20;;;;;;5012101;28;20578;-76
2020/12/18 09:45:28;;;;;;;1.60;1.10;;;8.50;98.20;;;;;;5012379;28;21044;-76
2020/12/18 09:47:55;;;;;;;1.63;1.20;;;8.50;98.20;;;;;;5005216;28;20469;-76
2020/12/18 09:50:22;;;;;;;2.57;1.97;;;8.50;98.20;;;;;;5002512;28;20965;-75
2020/12/18 09:52:49;;;;;;;1.63;1.17;;;8.60;98.20;;;;;;5009083;28;20467;-76
2020/12/18 09:55:15;;;;;;;1.60;1.20;;;8.60;98.20;;;;;;5010891;28;20516;-76
2020/12/18 09:57:42;;;;;;;1.60;1.17;;;8.60;98.20;;;;;;5006121;28;20526;-75
2020/12/18 10:00:09;;;;;;;1.60;1.20;;;8.60;98.20;;;;;;5004105;28;20481;-76
2020/12/18 10:02:35;;;;;;;1.70;1.30;;;8.60;98.20;;;;;;5004595;28;21035;-76
2020/12/18 10:05:03;;;;;;;1.63;1.20;;;8.60;98.20;;;;;;5006623;28;20532;-76
2020/12/18 10:07:30;;;;;;;1.60;1.20;;;8.60;98.20;;;;;;5005897;28;20504;-76
2020/12/18 10:09:57;;;;;;;1.70;1.30;;;8.60;98.20;;;;;;5006903;28;20952;-76
2020/12/18 10:12:23;;;;;;;1.63;1.30;;;8.60;98.20;;;;;;5005517;28;20559;-76
2020/12/18 10:14:50;;;;;;;1.70;1.30;;;8.70;98.20;;;;;;5010310;28;20488;-75
2020/12/18 10:17:16;;;;;;;1.60;1.20;;;8.70;98.20;;;;;;5004562;28;21073;-76
2020/12/18 10:19:44;;;;;;;1.60;1.17;;;8.80;98.20;;;;;;5004170;28;20535;-75
2020/12/18 10:22:10;;;;;;;1.70;1.33;;;8.80;98.20;;;;;;5009663;28;20473;-75
2020/12/18 10:24:38;;;;;;;1.63;1.30;;;8.80;98.20;;;;;;5007819;28;20869;-76
2020/12/18 10:27:04;;;;;;;1.70;1.30;;;8.90;98.20;;;;;;5003988;28;20518;-76
2020/12/18 10:29:31;;;;;;;1.60;1.20;;;8.90;98.20;;;;;;5002402;28;20794;-75
2020/12/18 10:31:58;;;;;;;1.60;1.20;;;8.90;98.20;;;;;;5008651;28;20500;-76
2020/12/18 10:34:25;;;;;;;1.70;1.20;;;8.90;98.20;;;;;;5003808;28;20492;-76
2020/12/18 10:36:55;;;;;;;1.70;1.30;;;8.90;98.20;;;;;;5005260;28;20571;-76
2020/12/18 10:39:23;;;;;;;1.67;1.30;;;8.90;98.20;;;;;;5002962;28;20460;-75
2020/12/18 10:41:50;;;;;;;1.63;1.20;;;8.90;98.20;;;;;;5004420;28;20506;-76
2020/12/18 10:44:17;;;;;;;1.60;1.20;;;9.00;98.20;;;;;;5011758;28;20500;-76
2020/12/18 10:46:45;;;;;;;1.60;1.30;;;9.00;98.20;;;;;;5006683;28;21072;-76
2020/12/18 10:49:12;;;;;;;1.63;1.20;;;9.00;98.20;;;;;;5008483;28;20492;-75
2020/12/18 10:51:39;;;;;;;1.60;1.20;;;9.10;98.20;;;;;;5005009;28;20549;-75
2020/12/18 10:54:06;;;;;;;1.60;1.23;;;9.10;98.20;;;;;;5002264;28;20957;-75
2020/12/18 10:56:32;;;;;;;1.60;1.20;;;9.10;98.20;;;;;;5006068;28;20516;-75
2020/12/18 10:59:00;;;;;;;1.60;1.20;;;9.10;98.20;;;;;;5004984;28;20472;-74
2020/12/18 11:01:26;;;;;;;1.60;1.20;;;9.10;98.20;;;;;;5004357;28;20580;-76
2020/12/18 11:03:52;;;;;;;1.63;1.30;;;9.10;98.20;;;;;;5005663;28;20493;-75
2020/12/18 11:06:19;;;;;;;1.60;1.20;;;9.20;98.20;;;;;;5008636;28;20495;-77
2020/12/18 11:08:45;;;;;;;1.63;1.30;;;9.20;98.20;;;;;;5008535;28;20578;-75
2020/12/18 11:11:15;;;;;;;1.67;1.20;;;9.20;98.20;;;;;;5002717;28;20500;-75
2020/12/18 11:13:42;;;;;;;1.70;1.30;;;9.20;98.20;;;;;;5016023;28;20507;-74
2020/12/18 11:16:11;;;;;;;1.60;1.20;;;9.20;98.20;;;;;;5009076;28;20485;-77
2020/12/18 11:18:38;;;;;;;1.60;1.20;;;9.20;98.20;;;;;;5007569;28;20859;-78
2020/12/18 11:21:05;;;;;;;1.60;1.20;;;9.30;98.20;;;;;;5006165;28;20521;-77
2020/12/18 11:23:32;;;;;;;1.80;1.53;;;9.30;98.20;;;;;;5010074;28;20534;-76
2020/12/18 11:25:59;;;;;;;1.60;1.30;;;9.30;98.20;;;;;;5008926;28;20484;-77
2020/12/18 11:28:25;;;;;;;1.60;1.17;;;9.40;98.20;;;;;;5006125;28;20503;-77
2020/12/18 11:30:51;;;;;;;1.60;1.20;;;9.40;98.20;;;;;;5009938;28;21037;-77
2020/12/18 11:33:19;;;;;;;1.63;1.20;;;9.40;98.20;;;;;;5009735;28;20472;-76
2020/12/18 11:35:45;;;;;;;1.63;1.20;;;9.40;98.20;;;;;;5006680;28;20516;-77
2020/12/18 11:38:12;;;;;;;1.70;1.30;;;9.50;98.20;;;;;;5005314;28;20468;-77
2020/12/18 11:40:39;;;;;;;1.60;1.20;;;9.50;98.20;;;;;;5009479;28;20584;-77
2020/12/18 11:43:05;;;;;;;1.90;1.70;;;9.50;98.20;;;;;;5005113;28;20866;-76
2020/12/18 11:45:33;;;;;;;1.60;1.10;;;9.50;98.20;;;;;;5002562;28;21094;-75
2020/12/18 11:48:00;;;;;;;1.67;1.20;;;9.50;98.20;;;;;;5007595;28;20465;-75
2020/12/18 11:50:28;;;;;;;1.63;1.20;;;9.60;98.20;;;;;;5001700;28;20548;-75
2020/12/18 11:52:56;;;;;;;1.63;1.13;;;9.60;98.20;;;;;;5003300;28;20473;-75
2020/12/18 11:55:23;;;;;;;2.57;2.37;;;9.60;98.20;;;;;;5005541;28;20491;-75
2020/12/18 11:57:49;;;;;;;1.60;1.20;;;9.70;98.20;;;;;;5005780;28;21003;-76
2020/12/18 12:00:19;;;;;;;1.67;1.23;;;9.70;98.20;;;;;;5007294;28;21020;-77
2020/12/18 12:02:46;;;;;;;1.70;1.20;;;9.80;98.20;;;;;;5002940;28;20891;-75
2020/12/18 12:05:13;;;;;;;1.70;1.27;;;9.80;98.20;;;;;;5013830;28;20491;-76
2020/12/18 12:07:40;;;;;;;1.70;1.20;;;9.80;98.20;;;;;;5009463;28;21116;-75
2020/12/18 12:10:07;;;;;;;1.63;1.20;;;9.90;98.20;;;;;;5000359;28;21750;-76
2020/12/18 12:12:33;;;;;;;1.60;1.10;;;9.90;98.20;;;;;;5011664;28;20767;-76
2020/12/18 12:15:00;;;;;;;1.70;1.30;;;9.90;98.20;;;;;;5005008;28;20523;-75
2020/12/18 12:17:26;;;;;;;1.63;1.20;;;10.00;98.20;;;;;;5006691;28;20504;-75
2020/12/18 12:19:53;;;;;;;1.60;1.17;;;10.00;98.20;;;;;;5002841;28;20559;-76
2020/12/18 12:22:19;;;;;;;1.60;1.10;;;10.00;98.20;;;;;;5004239;28;20552;-76
2020/12/18 12:24:46;;;;;;;1.60;1.13;;;10.00;98.20;;;;;;5012273;28;20548;-76
2020/12/18 12:27:13;;;;;;;1.63;1.10;;;10.10;98.20;;;;;;5004284;28;20473;-76
2020/12/18 12:29:40;;;;;;;1.67;1.30;;;10.10;98.20;;;;;;5003275;28;20483;-75
2020/12/18 12:32:06;;;;;;;1.60;1.10;;;10.10;98.20;;;;;;5002009;28;20500;-75
2020/12/18 12:34:33;;;;;;;1.67;1.27;;;10.10;98.20;;;;;;5006666;28;20955;-75
2020/12/18 12:37:00;;;;;;;1.70;1.47;;;10.10;98.20;;;;;;5002012;28;20536;-76
2020/12/18 12:39:27;;;;;;;1.70;1.20;;;10.10;98.20;;;;;;5003258;28;20995;-75
2020/12/18 12:41:55;;;;;;;1.60;1.20;;;10.20;98.20;;;;;;5008130;28;20472;-76
2020/12/18 12:44:21;;;;;;;1.60;1.20;;;10.20;98.20;;;;;;5000284;28;20473;-75
2020/12/18 12:46:48;;;;;;;1.67;1.23;;;10.30;98.20;;;;;;5002353;28;20705;-76
2020/12/18 12:49:14;;;;;;;1.63;1.20;;;10.40;98.20;;;;;;5006314;28;20464;-75
2020/12/18 12:51:41;;;;;;;1.70;1.30;;;10.50;98.20;;;;;;5003387;28;20603;-75
2020/12/18 12:54:07;;;;;;;1.60;1.20;;;10.70;98.20;;;;;;5009732;28;20471;-75
2020/12/18 12:56:33;;;;;;;1.63;1.13;;;10.70;98.20;;;;;;4999045;28;21023;-75
2020/12/18 12:59:01;;;;;;;1.60;1.10;;;10.80;98.20;;;;;;4996160;28;20499;-75
2020/12/18 13:01:32;;;;;;;1.70;1.30;;;11.00;98.20;;;;;;5001879;28;20480;-76
2020/12/18 13:03:58;;;;;;;1.70;1.30;;;11.10;98.20;;;;;;4994024;28;20468;-76